Weather at Carcassonne Airport

Public forecast

Using degrees Celsius for public forecast. Weather courtesy of forecast.io.

Current aviation weather report (METAR) for Carcassonne Airport

Report is more than 6 hours old.

2022/11/14 15:30 (retrieved 2 years ago)

LFMK 141530Z AUTO 10004KT 060V160 9999 ///CB 17/13 Q1015 BECMG BKN018

Aviation forecast (TAF) for Carcassonne Airport

Forecast is more than 12 hours old.

2023/02/22 18:15 (retrieved 1 year ago)

TAF LFMK 221810Z 2218/2315 CNL